sensor_id;sensor_type;location;lat;lon;timestamp;P1;durP1;ratioP1;P2;durP2;ratioP2
16472;SDS011;8347;52.486;13.432;2023-05-02T00:00:17;11.38;;;5.43;;
16472;SDS011;8347;52.486;13.432;2023-05-02T00:03:03;8.23;;;5.03;;
16472;SDS011;8347;52.486;13.432;2023-05-02T00:05:51;7.07;;;4.50;;
16472;SDS011;8347;52.486;13.432;2023-05-02T00:08:37;8.48;;;5.43;;
16472;SDS011;8347;52.486;13.432;2023-05-02T00:11:24;7.72;;;5.03;;
16472;SDS011;8347;52.486;13.432;2023-05-02T00:14:10;10.55;;;6.57;;
16472;SDS011;8347;52.486;13.432;2023-05-02T00:16:57;8.05;;;4.80;;
16472;SDS011;8347;52.486;13.432;2023-05-02T00:19:44;6.05;;;4.53;;
16472;SDS011;8347;52.486;13.432;2023-05-02T00:22:30;6.57;;;4.63;;
16472;SDS011;8347;52.486;13.432;2023-05-02T00:25:17;9.75;;;4.85;;
16472;SDS011;8347;52.486;13.432;2023-05-02T00:28:04;6.28;;;5.57;;
16472;SDS011;8347;52.486;13.432;2023-05-02T00:30:50;7.93;;;4.88;;
16472;SDS011;8347;52.486;13.432;2023-05-02T00:33:37;15.20;;;6.00;;
16472;SDS011;8347;52.486;13.432;2023-05-02T00:36:23;7.63;;;5.47;;
16472;SDS011;8347;52.486;13.432;2023-05-02T00:39:11;9.48;;;5.40;;
16472;SDS011;8347;52.486;13.432;2023-05-02T00:41:58;6.93;;;4.93;;
16472;SDS011;8347;52.486;13.432;2023-05-02T00:44:44;9.63;;;5.55;;
16472;SDS011;8347;52.486;13.432;2023-05-02T00:47:31;12.38;;;6.90;;
16472;SDS011;8347;52.486;13.432;2023-05-02T00:50:18;11.63;;;5.93;;
16472;SDS011;8347;52.486;13.432;2023-05-02T00:53:05;13.10;;;6.22;;
16472;SDS011;8347;52.486;13.432;2023-05-02T00:55:52;8.38;;;5.60;;
16472;SDS011;8347;52.486;13.432;2023-05-02T00:58:39;7.28;;;5.50;;
16472;SDS011;8347;52.486;13.432;2023-05-02T01:01:35;8.23;;;5.20;;
16472;SDS011;8347;52.486;13.432;2023-05-02T01:04:30;8.20;;;5.45;;
16472;SDS011;8347;52.486;13.432;2023-05-02T01:10:45;8.60;;;4.45;;
16472;SDS011;8347;52.486;13.432;2023-05-02T01:13:34;7.88;;;5.22;;
16472;SDS011;8347;52.486;13.432;2023-05-02T01:16:22;8.65;;;5.05;;
16472;SDS011;8347;52.486;13.432;2023-05-02T01:19:11;8.48;;;6.75;;
16472;SDS011;8347;52.486;13.432;2023-05-02T01:22:00;8.73;;;5.20;;
16472;SDS011;8347;52.486;13.432;2023-05-02T01:24:52;9.23;;;5.10;;
16472;SDS011;8347;52.486;13.432;2023-05-02T01:30:33;9.27;;;4.85;;
16472;SDS011;8347;52.486;13.432;2023-05-02T01:33:21;8.07;;;5.38;;
16472;SDS011;8347;52.486;13.432;2023-05-02T01:36:09;9.18;;;5.30;;
16472;SDS011;8347;52.486;13.432;2023-05-02T01:38:59;4.85;;;4.20;;
16472;SDS011;8347;52.486;13.432;2023-05-02T01:41:48;9.43;;;4.25;;
16472;SDS011;8347;52.486;13.432;2023-05-02T01:44:36;8.77;;;4.60;;
16472;SDS011;8347;52.486;13.432;2023-05-02T01:47:24;7.15;;;4.85;;
16472;SDS011;8347;52.486;13.432;2023-05-02T01:50:13;5.93;;;4.57;;
16472;SDS011;8347;52.486;13.432;2023-05-02T01:53:08;7.28;;;4.25;;
16472;SDS011;8347;52.486;13.432;2023-05-02T01:55:58;8.50;;;4.63;;
16472;SDS011;8347;52.486;13.432;2023-05-02T01:58:45;7.55;;;4.95;;
16472;SDS011;8347;52.486;13.432;2023-05-02T02:01:35;5.80;;;4.93;;
16472;SDS011;8347;52.486;13.432;2023-05-02T02:04:22;9.43;;;5.43;;
16472;SDS011;8347;52.486;13.432;2023-05-02T02:07:09;7.40;;;5.00;;
16472;SDS011;8347;52.486;13.432;2023-05-02T02:09:56;8.15;;;4.68;;
16472;SDS011;8347;52.486;13.432;2023-05-02T02:12:50;9.20;;;4.50;;
16472;SDS011;8347;52.486;13.432;2023-05-02T02:15:38;8.20;;;4.57;;
16472;SDS011;8347;52.486;13.432;2023-05-02T02:18:26;8.93;;;4.25;;
16472;SDS011;8347;52.486;13.432;2023-05-02T02:21:14;7.63;;;4.95;;
16472;SDS011;8347;52.486;13.432;2023-05-02T02:24:04;6.15;;;4.50;;
16472;SDS011;8347;52.486;13.432;2023-05-02T02:26:52;9.25;;;5.45;;
16472;SDS011;8347;52.486;13.432;2023-05-02T02:29:39;8.27;;;4.78;;
16472;SDS011;8347;52.486;13.432;2023-05-02T02:32:26;6.55;;;4.43;;
16472;SDS011;8347;52.486;13.432;2023-05-02T02:35:12;8.48;;;5.97;;
16472;SDS011;8347;52.486;13.432;2023-05-02T02:38:01;5.18;;;4.00;;
16472;SDS011;8347;52.486;13.432;2023-05-02T02:43:59;11.13;;;4.25;;
16472;SDS011;8347;52.486;13.432;2023-05-02T02:46:50;7.82;;;4.45;;
16472;SDS011;8347;52.486;13.432;2023-05-02T02:49:44;6.72;;;4.10;;
16472;SDS011;8347;52.486;13.432;2023-05-02T02:53:06;4.65;;;3.97;;
16472;SDS011;8347;52.486;13.432;2023-05-02T02:55:59;6.65;;;3.75;;
16472;SDS011;8347;52.486;13.432;2023-05-02T02:58:55;6.05;;;4.18;;
16472;SDS011;8347;52.486;13.432;2023-05-02T03:01:45;4.97;;;3.90;;
16472;SDS011;8347;52.486;13.432;2023-05-02T03:04:39;6.93;;;3.65;;
16472;SDS011;8347;52.486;13.432;2023-05-02T03:07:27;8.57;;;3.83;;
16472;SDS011;8347;52.486;13.432;2023-05-02T03:10:15;6.43;;;3.92;;
16472;SDS011;8347;52.486;13.432;2023-05-02T03:13:02;8.38;;;4.38;;
16472;SDS011;8347;52.486;13.432;2023-05-02T03:18:44;6.20;;;4.28;;
16472;SDS011;8347;52.486;13.432;2023-05-02T03:21:31;7.40;;;4.07;;
16472;SDS011;8347;52.486;13.432;2023-05-02T03:24:22;7.55;;;4.63;;
16472;SDS011;8347;52.486;13.432;2023-05-02T03:27:11;9.75;;;5.65;;
16472;SDS011;8347;52.486;13.432;2023-05-02T03:30:00;6.63;;;4.18;;
16472;SDS011;8347;52.486;13.432;2023-05-02T03:32:49;6.97;;;4.35;;
16472;SDS011;8347;52.486;13.432;2023-05-02T03:35:36;4.93;;;3.88;;
16472;SDS011;8347;52.486;13.432;2023-05-02T03:38:22;6.38;;;3.58;;
16472;SDS011;8347;52.486;13.432;2023-05-02T03:41:09;9.98;;;6.13;;
16472;SDS011;8347;52.486;13.432;2023-05-02T03:43:56;6.35;;;3.70;;
16472;SDS011;8347;52.486;13.432;2023-05-02T03:46:44;5.35;;;3.55;;
16472;SDS011;8347;52.486;13.432;2023-05-02T03:49:35;5.32;;;4.10;;
16472;SDS011;8347;52.486;13.432;2023-05-02T03:52:22;8.88;;;4.35;;
16472;SDS011;8347;52.486;13.432;2023-05-02T03:55:12;6.43;;;3.28;;
16472;SDS011;8347;52.486;13.432;2023-05-02T03:57:59;6.95;;;3.72;;
16472;SDS011;8347;52.486;13.432;2023-05-02T04:00:46;7.05;;;4.07;;
16472;SDS011;8347;52.486;13.432;2023-05-02T04:03:33;11.00;;;4.18;;
16472;SDS011;8347;52.486;13.432;2023-05-02T04:06:21;6.65;;;3.85;;
16472;SDS011;8347;52.486;13.432;2023-05-02T04:09:13;7.82;;;4.03;;
16472;SDS011;8347;52.486;13.432;2023-05-02T04:12:09;7.20;;;3.88;;
16472;SDS011;8347;52.486;13.432;2023-05-02T04:15:00;7.45;;;4.55;;
16472;SDS011;8347;52.486;13.432;2023-05-02T04:17:49;6.30;;;4.43;;
16472;SDS011;8347;52.486;13.432;2023-05-02T04:20:36;9.38;;;4.38;;
16472;SDS011;8347;52.486;13.432;2023-05-02T04:23:22;9.98;;;4.07;;
16472;SDS011;8347;52.486;13.432;2023-05-02T04:26:14;8.93;;;4.07;;
16472;SDS011;8347;52.486;13.432;2023-05-02T04:29:07;6.35;;;3.53;;
16472;SDS011;8347;52.486;13.432;2023-05-02T04:31:55;10.05;;;3.95;;
16472;SDS011;8347;52.486;13.432;2023-05-02T04:34:44;19.50;;;3.42;;
16472;SDS011;8347;52.486;13.432;2023-05-02T04:37:31;10.55;;;3.80;;
16472;SDS011;8347;52.486;13.432;2023-05-02T04:40:18;5.10;;;3.40;;
16472;SDS011;8347;52.486;13.432;2023-05-02T04:43:09;5.90;;;3.72;;
16472;SDS011;8347;52.486;13.432;2023-05-02T04:46:01;6.88;;;3.47;;
16472;SDS011;8347;52.486;13.432;2023-05-02T04:48:52;9.70;;;3.10;;
16472;SDS011;8347;52.486;13.432;2023-05-02T04:51:39;6.60;;;3.10;;
16472;SDS011;8347;52.486;13.432;2023-05-02T04:54:26;6.78;;;3.03;;
16472;SDS011;8347;52.486;13.432;2023-05-02T04:57:13;3.97;;;2.92;;
16472;SDS011;8347;52.486;13.432;2023-05-02T05:00:04;7.82;;;3.25;;
16472;SDS011;8347;52.486;13.432;2023-05-02T05:02:51;17.45;;;4.60;;
16472;SDS011;8347;52.486;13.432;2023-05-02T05:05:37;6.50;;;3.42;;
16472;SDS011;8347;52.486;13.432;2023-05-02T05:08:27;5.47;;;3.17;;
16472;SDS011;8347;52.486;13.432;2023-05-02T05:11:13;6.85;;;3.40;;
16472;SDS011;8347;52.486;13.432;2023-05-02T05:14:01;9.18;;;3.65;;
16472;SDS011;8347;52.486;13.432;2023-05-02T05:16:50;6.38;;;4.60;;
16472;SDS011;8347;52.486;13.432;2023-05-02T05:19:36;4.50;;;3.13;;
16472;SDS011;8347;52.486;13.432;2023-05-02T05:22:23;5.32;;;3.80;;
16472;SDS011;8347;52.486;13.432;2023-05-02T05:25:10;5.40;;;3.80;;
16472;SDS011;8347;52.486;13.432;2023-05-02T05:27:58;8.75;;;3.90;;
16472;SDS011;8347;52.486;13.432;2023-05-02T05:30:45;5.30;;;3.85;;
16472;SDS011;8347;52.486;13.432;2023-05-02T05:33:37;6.88;;;3.53;;
16472;SDS011;8347;52.486;13.432;2023-05-02T05:36:24;5.85;;;3.70;;
16472;SDS011;8347;52.486;13.432;2023-05-02T05:39:11;7.45;;;4.25;;
16472;SDS011;8347;52.486;13.432;2023-05-02T05:41:59;4.22;;;3.10;;
16472;SDS011;8347;52.486;13.432;2023-05-02T05:44:48;7.13;;;4.10;;
16472;SDS011;8347;52.486;13.432;2023-05-02T05:47:36;7.45;;;3.63;;
16472;SDS011;8347;52.486;13.432;2023-05-02T05:50:23;8.40;;;4.30;;
16472;SDS011;8347;52.486;13.432;2023-05-02T05:53:10;7.63;;;3.65;;
16472;SDS011;8347;52.486;13.432;2023-05-02T05:55:58;5.30;;;3.75;;
16472;SDS011;8347;52.486;13.432;2023-05-02T05:58:46;6.07;;;4.32;;
16472;SDS011;8347;52.486;13.432;2023-05-02T06:01:34;5.15;;;4.10;;
16472;SDS011;8347;52.486;13.432;2023-05-02T06:04:22;7.95;;;5.55;;
16472;SDS011;8347;52.486;13.432;2023-05-02T06:07:10;8.35;;;4.78;;
16472;SDS011;8347;52.486;13.432;2023-05-02T06:09:57;8.65;;;4.35;;
16472;SDS011;8347;52.486;13.432;2023-05-02T06:12:44;6.07;;;4.53;;
16472;SDS011;8347;52.486;13.432;2023-05-02T06:15:32;6.30;;;4.85;;
16472;SDS011;8347;52.486;13.432;2023-05-02T06:18:20;6.10;;;4.63;;
16472;SDS011;8347;52.486;13.432;2023-05-02T06:21:07;9.82;;;5.13;;
16472;SDS011;8347;52.486;13.432;2023-05-02T06:23:54;8.77;;;5.05;;
16472;SDS011;8347;52.486;13.432;2023-05-02T06:26:41;11.73;;;5.30;;
16472;SDS011;8347;52.486;13.432;2023-05-02T06:29:27;7.07;;;5.30;;
16472;SDS011;8347;52.486;13.432;2023-05-02T06:32:13;9.95;;;5.43;;
16472;SDS011;8347;52.486;13.432;2023-05-02T06:35:00;7.25;;;5.38;;
16472;SDS011;8347;52.486;13.432;2023-05-02T06:37:47;9.80;;;4.90;;
16472;SDS011;8347;52.486;13.432;2023-05-02T06:40:33;10.20;;;5.45;;
16472;SDS011;8347;52.486;13.432;2023-05-02T06:43:22;11.02;;;6.20;;
16472;SDS011;8347;52.486;13.432;2023-05-02T06:46:08;11.90;;;5.80;;
16472;SDS011;8347;52.486;13.432;2023-05-02T06:48:55;12.10;;;6.38;;
16472;SDS011;8347;52.486;13.432;2023-05-02T06:51:41;13.95;;;6.18;;
16472;SDS011;8347;52.486;13.432;2023-05-02T06:54:28;10.23;;;6.75;;
16472;SDS011;8347;52.486;13.432;2023-05-02T06:57:15;12.18;;;7.75;;
16472;SDS011;8347;52.486;13.432;2023-05-02T07:00:01;11.00;;;7.80;;
16472;SDS011;8347;52.486;13.432;2023-05-02T07:02:49;14.50;;;6.72;;
16472;SDS011;8347;52.486;13.432;2023-05-02T07:05:35;14.55;;;9.23;;
16472;SDS011;8347;52.486;13.432;2023-05-02T07:08:22;10.50;;;7.35;;
16472;SDS011;8347;52.486;13.432;2023-05-02T07:11:09;11.50;;;7.70;;
16472;SDS011;8347;52.486;13.432;2023-05-02T07:13:55;14.20;;;7.20;;
16472;SDS011;8347;52.486;13.432;2023-05-02T07:16:42;10.50;;;7.00;;
16472;SDS011;8347;52.486;13.432;2023-05-02T07:19:29;12.02;;;6.47;;
16472;SDS011;8347;52.486;13.432;2023-05-02T07:22:15;9.98;;;6.75;;
16472;SDS011;8347;52.486;13.432;2023-05-02T07:25:02;8.27;;;5.68;;
16472;SDS011;8347;52.486;13.432;2023-05-02T07:27:48;8.23;;;5.60;;
16472;SDS011;8347;52.486;13.432;2023-05-02T07:30:35;9.55;;;6.13;;
16472;SDS011;8347;52.486;13.432;2023-05-02T07:33:22;11.40;;;6.35;;
16472;SDS011;8347;52.486;13.432;2023-05-02T07:36:09;9.57;;;7.10;;
16472;SDS011;8347;52.486;13.432;2023-05-02T07:38:55;8.20;;;5.88;;
16472;SDS011;8347;52.486;13.432;2023-05-02T07:41:42;11.50;;;6.43;;
16472;SDS011;8347;52.486;13.432;2023-05-02T07:44:28;7.63;;;6.03;;
16472;SDS011;8347;52.486;13.432;2023-05-02T07:47:15;11.77;;;5.95;;
16472;SDS011;8347;52.486;13.432;2023-05-02T07:50:01;11.38;;;6.22;;
16472;SDS011;8347;52.486;13.432;2023-05-02T07:52:51;13.48;;;8.20;;
16472;SDS011;8347;52.486;13.432;2023-05-02T07:55:38;10.35;;;6.00;;
16472;SDS011;8347;52.486;13.432;2023-05-02T07:58:24;12.10;;;7.95;;
16472;SDS011;8347;52.486;13.432;2023-05-02T08:01:11;7.68;;;5.55;;
16472;SDS011;8347;52.486;13.432;2023-05-02T08:03:57;10.35;;;5.55;;
16472;SDS011;8347;52.486;13.432;2023-05-02T08:06:44;7.78;;;5.80;;
16472;SDS011;8347;52.486;13.432;2023-05-02T08:09:30;8.23;;;5.65;;
16472;SDS011;8347;52.486;13.432;2023-05-02T08:12:17;11.57;;;7.20;;
16472;SDS011;8347;52.486;13.432;2023-05-02T08:15:04;9.85;;;6.38;;
16472;SDS011;8347;52.486;13.432;2023-05-02T08:17:51;15.48;;;8.70;;
16472;SDS011;8347;52.486;13.432;2023-05-02T08:20:38;15.57;;;8.32;;
16472;SDS011;8347;52.486;13.432;2023-05-02T08:23:24;14.77;;;6.95;;
16472;SDS011;8347;52.486;13.432;2023-05-02T08:26:11;10.35;;;5.57;;
16472;SDS011;8347;52.486;13.432;2023-05-02T08:28:58;7.63;;;5.28;;
16472;SDS011;8347;52.486;13.432;2023-05-02T08:31:44;6.57;;;4.47;;
16472;SDS011;8347;52.486;13.432;2023-05-02T08:34:31;6.85;;;5.75;;
16472;SDS011;8347;52.486;13.432;2023-05-02T08:37:18;7.45;;;4.55;;
16472;SDS011;8347;52.486;13.432;2023-05-02T08:40:05;6.57;;;4.32;;
16472;SDS011;8347;52.486;13.432;2023-05-02T08:42:56;6.95;;;4.50;;
16472;SDS011;8347;52.486;13.432;2023-05-02T08:45:43;11.20;;;5.18;;
16472;SDS011;8347;52.486;13.432;2023-05-02T08:48:30;8.02;;;5.75;;
16472;SDS011;8347;52.486;13.432;2023-05-02T08:51:17;9.48;;;5.22;;
16472;SDS011;8347;52.486;13.432;2023-05-02T08:54:03;9.75;;;4.45;;
16472;SDS011;8347;52.486;13.432;2023-05-02T08:56:54;11.23;;;5.75;;
16472;SDS011;8347;52.486;13.432;2023-05-02T08:59:41;6.63;;;4.85;;
16472;SDS011;8347;52.486;13.432;2023-05-02T09:02:50;9.68;;;4.65;;
16472;SDS011;8347;52.486;13.432;2023-05-02T09:05:41;6.28;;;4.05;;
16472;SDS011;8347;52.486;13.432;2023-05-02T09:08:27;6.28;;;4.00;;
16472;SDS011;8347;52.486;13.432;2023-05-02T09:11:14;7.35;;;4.00;;
16472;SDS011;8347;52.486;13.432;2023-05-02T09:14:02;4.53;;;2.97;;
16472;SDS011;8347;52.486;13.432;2023-05-02T09:16:59;3.92;;;3.28;;
16472;SDS011;8347;52.486;13.432;2023-05-02T09:19:46;4.72;;;3.25;;
16472;SDS011;8347;52.486;13.432;2023-05-02T09:22:48;5.65;;;3.72;;
16472;SDS011;8347;52.486;13.432;2023-05-02T09:25:35;7.38;;;3.95;;
16472;SDS011;8347;52.486;13.432;2023-05-02T09:28:39;7.97;;;3.95;;
16472;SDS011;8347;52.486;13.432;2023-05-02T09:31:32;6.10;;;3.85;;
16472;SDS011;8347;52.486;13.432;2023-05-02T09:34:21;6.30;;;4.03;;
16472;SDS011;8347;52.486;13.432;2023-05-02T09:37:08;4.63;;;3.17;;
16472;SDS011;8347;52.486;13.432;2023-05-02T09:40:06;4.47;;;3.25;;
16472;SDS011;8347;52.486;13.432;2023-05-02T09:42:56;8.10;;;3.13;;
16472;SDS011;8347;52.486;13.432;2023-05-02T09:45:42;6.30;;;3.58;;
16472;SDS011;8347;52.486;13.432;2023-05-02T09:48:50;7.30;;;3.83;;
16472;SDS011;8347;52.486;13.432;2023-05-02T09:51:37;6.20;;;3.38;;
16472;SDS011;8347;52.486;13.432;2023-05-02T09:54:33;4.60;;;3.10;;
16472;SDS011;8347;52.486;13.432;2023-05-02T09:57:37;4.20;;;3.25;;
16472;SDS011;8347;52.486;13.432;2023-05-02T10:03:47;6.47;;;3.20;;
16472;SDS011;8347;52.486;13.432;2023-05-02T10:06:34;4.65;;;3.45;;
16472;SDS011;8347;52.486;13.432;2023-05-02T10:09:21;6.10;;;3.20;;
16472;SDS011;8347;52.486;13.432;2023-05-02T10:12:08;5.85;;;4.18;;
16472;SDS011;8347;52.486;13.432;2023-05-02T10:14:56;5.32;;;3.30;;
16472;SDS011;8347;52.486;13.432;2023-05-02T10:17:47;5.57;;;3.70;;
16472;SDS011;8347;52.486;13.432;2023-05-02T10:20:34;5.80;;;3.58;;
16472;SDS011;8347;52.486;13.432;2023-05-02T10:23:24;5.28;;;3.95;;
16472;SDS011;8347;52.486;13.432;2023-05-02T10:26:13;6.43;;;3.63;;
16472;SDS011;8347;52.486;13.432;2023-05-02T10:29:00;5.50;;;3.67;;
16472;SDS011;8347;52.486;13.432;2023-05-02T10:31:47;4.38;;;3.08;;
16472;SDS011;8347;52.486;13.432;2023-05-02T10:34:34;6.03;;;3.58;;
16472;SDS011;8347;52.486;13.432;2023-05-02T10:37:21;5.43;;;3.60;;
16472;SDS011;8347;52.486;13.432;2023-05-02T10:40:12;5.15;;;3.10;;
16472;SDS011;8347;52.486;13.432;2023-05-02T10:42:59;4.07;;;3.22;;
16472;SDS011;8347;52.486;13.432;2023-05-02T10:45:45;5.07;;;2.90;;
16472;SDS011;8347;52.486;13.432;2023-05-02T10:48:32;4.53;;;3.50;;
16472;SDS011;8347;52.486;13.432;2023-05-02T10:51:26;8.10;;;2.88;;
16472;SDS011;8347;52.486;13.432;2023-05-02T10:59:51;7.93;;;3.20;;
16472;SDS011;8347;52.486;13.432;2023-05-02T11:05:25;5.43;;;2.97;;
16472;SDS011;8347;52.486;13.432;2023-05-02T11:11:36;4.95;;;3.10;;
16472;SDS011;8347;52.486;13.432;2023-05-02T11:17:11;4.93;;;3.03;;
16472;SDS011;8347;52.486;13.432;2023-05-02T11:22:50;10.07;;;4.20;;
16472;SDS011;8347;52.486;13.432;2023-05-02T11:25:39;13.40;;;4.50;;
16472;SDS011;8347;52.486;13.432;2023-05-02T11:34:13;12.93;;;4.65;;
16472;SDS011;8347;52.486;13.432;2023-05-02T11:37:09;8.25;;;4.35;;
16472;SDS011;8347;52.486;13.432;2023-05-02T11:40:08;11.63;;;5.13;;
16472;SDS011;8347;52.486;13.432;2023-05-02T11:42:57;12.07;;;3.97;;
16472;SDS011;8347;52.486;13.432;2023-05-02T11:45:44;9.52;;;4.43;;
16472;SDS011;8347;52.486;13.432;2023-05-02T11:48:30;11.18;;;4.03;;
16472;SDS011;8347;52.486;13.432;2023-05-02T11:51:21;9.10;;;3.17;;
16472;SDS011;8347;52.486;13.432;2023-05-02T11:54:07;10.07;;;3.53;;
16472;SDS011;8347;52.486;13.432;2023-05-02T11:56:55;7.40;;;3.30;;
16472;SDS011;8347;52.486;13.432;2023-05-02T11:59:48;7.50;;;3.20;;
16472;SDS011;8347;52.486;13.432;2023-05-02T12:02:35;10.32;;;3.17;;
16472;SDS011;8347;52.486;13.432;2023-05-02T12:05:26;4.90;;;2.95;;
16472;SDS011;8347;52.486;13.432;2023-05-02T12:08:17;6.63;;;3.13;;
16472;SDS011;8347;52.486;13.432;2023-05-02T12:11:05;6.35;;;2.95;;
16472;SDS011;8347;52.486;13.432;2023-05-02T12:13:51;9.48;;;2.78;;
16472;SDS011;8347;52.486;13.432;2023-05-02T12:16:38;10.52;;;2.72;;
16472;SDS011;8347;52.486;13.432;2023-05-02T12:19:25;6.85;;;3.55;;
16472;SDS011;8347;52.486;13.432;2023-05-02T12:22:12;9.27;;;3.08;;
16472;SDS011;8347;52.486;13.432;2023-05-02T12:24:59;7.22;;;2.60;;
16472;SDS011;8347;52.486;13.432;2023-05-02T12:27:59;9.07;;;2.35;;
16472;SDS011;8347;52.486;13.432;2023-05-02T12:30:46;7.72;;;2.63;;
16472;SDS011;8347;52.486;13.432;2023-05-02T12:33:44;3.42;;;2.20;;
16472;SDS011;8347;52.486;13.432;2023-05-02T12:36:32;8.82;;;2.33;;
16472;SDS011;8347;52.486;13.432;2023-05-02T12:39:19;4.57;;;2.75;;
16472;SDS011;8347;52.486;13.432;2023-05-02T12:42:20;7.85;;;2.75;;
16472;SDS011;8347;52.486;13.432;2023-05-02T12:45:17;7.03;;;2.70;;
16472;SDS011;8347;52.486;13.432;2023-05-02T12:48:20;9.88;;;3.63;;
16472;SDS011;8347;52.486;13.432;2023-05-02T12:51:15;11.95;;;3.40;;
16472;SDS011;8347;52.486;13.432;2023-05-02T12:54:05;14.82;;;3.70;;
16472;SDS011;8347;52.486;13.432;2023-05-02T12:56:52;9.57;;;4.22;;
16472;SDS011;8347;52.486;13.432;2023-05-02T12:59:38;12.90;;;3.50;;
16472;SDS011;8347;52.486;13.432;2023-05-02T13:02:25;13.13;;;3.80;;
16472;SDS011;8347;52.486;13.432;2023-05-02T13:05:12;17.13;;;4.10;;
16472;SDS011;8347;52.486;13.432;2023-05-02T13:08:00;13.43;;;4.82;;
16472;SDS011;8347;52.486;13.432;2023-05-02T13:10:46;13.57;;;5.63;;
16472;SDS011;8347;52.486;13.432;2023-05-02T13:13:33;18.10;;;4.68;;
16472;SDS011;8347;52.486;13.432;2023-05-02T13:16:20;11.20;;;3.75;;
16472;SDS011;8347;52.486;13.432;2023-05-02T13:19:07;15.30;;;4.53;;
16472;SDS011;8347;52.486;13.432;2023-05-02T13:21:54;13.95;;;3.80;;
16472;SDS011;8347;52.486;13.432;2023-05-02T13:24:40;8.73;;;3.60;;
16472;SDS011;8347;52.486;13.432;2023-05-02T13:27:27;12.25;;;4.07;;
16472;SDS011;8347;52.486;13.432;2023-05-02T13:30:14;11.18;;;3.63;;
16472;SDS011;8347;52.486;13.432;2023-05-02T13:33:00;13.88;;;3.17;;
16472;SDS011;8347;52.486;13.432;2023-05-02T13:35:47;11.38;;;3.30;;
16472;SDS011;8347;52.486;13.432;2023-05-02T13:38:33;10.82;;;3.38;;
16472;SDS011;8347;52.486;13.432;2023-05-02T13:41:20;13.30;;;2.95;;
16472;SDS011;8347;52.486;13.432;2023-05-02T13:44:09;10.93;;;2.78;;
16472;SDS011;8347;52.486;13.432;2023-05-02T13:46:55;14.57;;;3.50;;
16472;SDS011;8347;52.486;13.432;2023-05-02T13:49:42;13.27;;;3.80;;
16472;SDS011;8347;52.486;13.432;2023-05-02T13:52:28;11.07;;;4.03;;
16472;SDS011;8347;52.486;13.432;2023-05-02T13:55:15;13.30;;;4.55;;
16472;SDS011;8347;52.486;13.432;2023-05-02T13:58:01;8.70;;;3.45;;
16472;SDS011;8347;52.486;13.432;2023-05-02T14:00:48;6.35;;;3.42;;
16472;SDS011;8347;52.486;13.432;2023-05-02T14:03:35;5.95;;;3.00;;
16472;SDS011;8347;52.486;13.432;2023-05-02T14:06:21;5.90;;;3.30;;
16472;SDS011;8347;52.486;13.432;2023-05-02T14:09:08;8.13;;;3.50;;
16472;SDS011;8347;52.486;13.432;2023-05-02T14:11:54;7.10;;;3.35;;
16472;SDS011;8347;52.486;13.432;2023-05-02T14:14:41;9.77;;;3.30;;
16472;SDS011;8347;52.486;13.432;2023-05-02T14:17:27;8.00;;;3.83;;
16472;SDS011;8347;52.486;13.432;2023-05-02T14:20:16;8.80;;;3.65;;
16472;SDS011;8347;52.486;13.432;2023-05-02T14:23:02;8.32;;;3.42;;
16472;SDS011;8347;52.486;13.432;2023-05-02T14:25:49;7.55;;;3.55;;
16472;SDS011;8347;52.486;13.432;2023-05-02T14:28:35;8.40;;;3.63;;
16472;SDS011;8347;52.486;13.432;2023-05-02T14:31:22;8.98;;;3.63;;
16472;SDS011;8347;52.486;13.432;2023-05-02T14:34:09;13.00;;;3.42;;
16472;SDS011;8347;52.486;13.432;2023-05-02T14:36:56;9.60;;;3.75;;
16472;SDS011;8347;52.486;13.432;2023-05-02T14:39:42;8.35;;;3.22;;
16472;SDS011;8347;52.486;13.432;2023-05-02T14:42:30;8.73;;;3.00;;
16472;SDS011;8347;52.486;13.432;2023-05-02T14:45:17;5.78;;;3.10;;
16472;SDS011;8347;52.486;13.432;2023-05-02T14:48:03;6.30;;;2.85;;
16472;SDS011;8347;52.486;13.432;2023-05-02T14:50:51;10.30;;;3.85;;
16472;SDS011;8347;52.486;13.432;2023-05-02T14:53:38;10.40;;;4.28;;
16472;SDS011;8347;52.486;13.432;2023-05-02T14:56:24;8.00;;;3.63;;
16472;SDS011;8347;52.486;13.432;2023-05-02T14:59:11;8.82;;;3.80;;
16472;SDS011;8347;52.486;13.432;2023-05-02T15:01:58;7.32;;;3.53;;
16472;SDS011;8347;52.486;13.432;2023-05-02T15:04:44;8.02;;;3.47;;
16472;SDS011;8347;52.486;13.432;2023-05-02T15:07:31;9.18;;;3.42;;
16472;SDS011;8347;52.486;13.432;2023-05-02T15:10:17;8.57;;;4.03;;
16472;SDS011;8347;52.486;13.432;2023-05-02T15:13:04;11.73;;;3.42;;
16472;SDS011;8347;52.486;13.432;2023-05-02T15:15:51;6.72;;;2.65;;
16472;SDS011;8347;52.486;13.432;2023-05-02T15:18:40;10.40;;;2.50;;
16472;SDS011;8347;52.486;13.432;2023-05-02T15:21:27;6.95;;;2.80;;
16472;SDS011;8347;52.486;13.432;2023-05-02T15:24:13;10.68;;;2.78;;
16472;SDS011;8347;52.486;13.432;2023-05-02T15:27:00;9.15;;;4.13;;
16472;SDS011;8347;52.486;13.432;2023-05-02T15:29:46;9.98;;;2.80;;
16472;SDS011;8347;52.486;13.432;2023-05-02T15:32:33;10.07;;;3.38;;
16472;SDS011;8347;52.486;13.432;2023-05-02T15:35:19;6.57;;;2.67;;
16472;SDS011;8347;52.486;13.432;2023-05-02T15:38:06;8.63;;;3.20;;
16472;SDS011;8347;52.486;13.432;2023-05-02T15:40:57;7.88;;;2.75;;
16472;SDS011;8347;52.486;13.432;2023-05-02T15:43:44;9.40;;;3.05;;
16472;SDS011;8347;52.486;13.432;2023-05-02T15:46:31;11.68;;;3.50;;
16472;SDS011;8347;52.486;13.432;2023-05-02T15:49:17;7.00;;;3.30;;
16472;SDS011;8347;52.486;13.432;2023-05-02T15:52:04;6.93;;;3.45;;
16472;SDS011;8347;52.486;13.432;2023-05-02T15:54:50;8.35;;;3.25;;
16472;SDS011;8347;52.486;13.432;2023-05-02T15:57:37;8.68;;;2.95;;
16472;SDS011;8347;52.486;13.432;2023-05-02T16:00:23;9.98;;;3.85;;
16472;SDS011;8347;52.486;13.432;2023-05-02T16:03:10;9.63;;;5.28;;
16472;SDS011;8347;52.486;13.432;2023-05-02T16:05:57;7.97;;;5.13;;
16472;SDS011;8347;52.486;13.432;2023-05-02T16:08:44;8.73;;;3.88;;
16472;SDS011;8347;52.486;13.432;2023-05-02T16:11:30;12.38;;;3.83;;
16472;SDS011;8347;52.486;13.432;2023-05-02T16:14:17;8.50;;;3.60;;
16472;SDS011;8347;52.486;13.432;2023-05-02T16:17:08;11.82;;;3.90;;
16472;SDS011;8347;52.486;13.432;2023-05-02T16:19:55;13.77;;;3.88;;
16472;SDS011;8347;52.486;13.432;2023-05-02T16:22:43;12.75;;;3.72;;
16472;SDS011;8347;52.486;13.432;2023-05-02T16:25:33;6.05;;;2.55;;
16472;SDS011;8347;52.486;13.432;2023-05-02T16:28:20;8.80;;;3.15;;
16472;SDS011;8347;52.486;13.432;2023-05-02T16:31:06;6.32;;;3.00;;
16472;SDS011;8347;52.486;13.432;2023-05-02T16:33:55;8.77;;;3.55;;
16472;SDS011;8347;52.486;13.432;2023-05-02T16:36:43;7.70;;;2.80;;
16472;SDS011;8347;52.486;13.432;2023-05-02T16:39:32;6.55;;;3.05;;
16472;SDS011;8347;52.486;13.432;2023-05-02T16:42:21;6.97;;;3.55;;
16472;SDS011;8347;52.486;13.432;2023-05-02T16:45:08;11.90;;;4.80;;
16472;SDS011;8347;52.486;13.432;2023-05-02T16:47:54;9.70;;;3.72;;
16472;SDS011;8347;52.486;13.432;2023-05-02T16:50:42;11.48;;;3.83;;
16472;SDS011;8347;52.486;13.432;2023-05-02T16:53:29;10.43;;;3.60;;
16472;SDS011;8347;52.486;13.432;2023-05-02T16:56:15;7.78;;;3.65;;
16472;SDS011;8347;52.486;13.432;2023-05-02T16:59:02;8.95;;;3.15;;
16472;SDS011;8347;52.486;13.432;2023-05-02T17:01:49;9.35;;;3.67;;
16472;SDS011;8347;52.486;13.432;2023-05-02T17:04:36;7.60;;;4.43;;
16472;SDS011;8347;52.486;13.432;2023-05-02T17:07:22;6.72;;;3.50;;
16472;SDS011;8347;52.486;13.432;2023-05-02T17:10:09;5.35;;;3.03;;
16472;SDS011;8347;52.486;13.432;2023-05-02T17:12:57;9.75;;;3.88;;
16472;SDS011;8347;52.486;13.432;2023-05-02T17:15:43;9.68;;;4.80;;
16472;SDS011;8347;52.486;13.432;2023-05-02T17:18:31;9.02;;;3.60;;
16472;SDS011;8347;52.486;13.432;2023-05-02T17:21:18;8.60;;;3.67;;
16472;SDS011;8347;52.486;13.432;2023-05-02T17:24:05;7.78;;;3.30;;
16472;SDS011;8347;52.486;13.432;2023-05-02T17:26:51;11.52;;;4.55;;
16472;SDS011;8347;52.486;13.432;2023-05-02T17:29:38;8.10;;;3.45;;